ADDS METAR Data INFO
IDs: Format: Raw Decoded Include TAF

Data at: 0840 UTC 27 Jun 2017

KHBV 270815Z AUTO 00000KT 10SM SCT011 BKN014 OVC034 25/23 A2999 RMK AO2 T02450226
KHBV 270755Z AUTO 00000KT 10SM SCT011 BKN018 BKN024 25/23 A3000 RMK AO2 T02450226
KHBV 270735Z AUTO 00000KT 10SM BKN016 25/23 A3000 RMK AO2 T02460226
KHBV 270715Z AUTO 00000KT 10SM SCT012 25/23 A3000 RMK AO2 T02460226
KHBV 270655Z AUTO 00000KT 10SM SCT011 25/23 A3001 RMK AO2 T02470226
KHBV 270635Z AUTO 00000KT 10SM CLR 25/23 A3001 RMK AO2 T02480226
KHBV 270615Z AUTO 00000KT 10SM CLR 25/23 A3000 RMK AO2 T02470227
KHBV 270555Z AUTO 00000KT 10SM CLR 25/23 A3000 RMK AO2 T02460227 10401 20190 404010190
KHBV 270535Z AUTO 00000KT 10SM SCT016 25/23 A3000 RMK AO2 T02490227
KHBV 270515Z AUTO 00000KT 10SM SCT016 25/23 A3001 RMK AO2 LTG DSNT SW T02490227
KHBV 270455Z AUTO 00000KT 10SM CLR 25/23 A3000 RMK AO2 T02490225
KHBV 270435Z AUTO 00000KT 10SM SCT019 25/22 A3000 RMK AO2 LTG DSNT SW T02500224
KHBV 270415Z AUTO 00000KT 10SM SCT019 25/22 A2999 RMK AO2 T02510223
KHBV 270355Z AUTO 00000KT 10SM CLR 25/22 A2999 RMK AO2 T02520222
KHBV 270335Z AUTO 00000KT 10SM CLR 25/22 A2999 RMK AO2 T02510222
KHBV 270315Z AUTO 00000KT 10SM CLR 25/22 A2999 RMK AO2 T02520221
KHBV 270255Z AUTO 00000KT 10SM CLR 26/22 A2999 RMK AO2 T02550219
KHBV 270235Z AUTO 00000KT 10SM SCT120 26/21 A2998 RMK AO2 T02550213
KHBV 270215Z AUTO 00000KT 10SM SCT120 26/21 A2998 RMK AO2 T02550208
KHBV 270155Z AUTO 00000KT 10SM BKN120 26/21 A2998 RMK AO2 T02550212
KHBV 270135Z AUTO 11010KT 10SM CLR 26/22 A2999 RMK AO2 T02580220
KHBV 270115Z AUTO 10008KT 10SM SCT120 26/22 A2998 RMK AO2 T02640219
KHBV 270055Z AUTO 12013KT 10SM SCT120 27/22 A2998 RMK AO2 T02690216
KHBV 270035Z AUTO 12010KT 10SM CLR 27/21 A2998 RMK AO2 T02730212
KHBV 270015Z AUTO 13012G15KT 10SM CLR 28/21 A2997 RMK AO2 T02770214
KHBV 262355Z AUTO 12012G15KT 10SM SCT032 27/22 A2998 RMK AO2 T02720219 10401 20190
KHBV 262335Z AUTO 15006KT 10SM SCT034 SCT047 SCT120 27/22 A2998 RMK AO2 LTG DSNT E T02650221
KHBV 262315Z AUTO 15011G16KT 10SM SCT023 BKN043 OVC100 28/21 A2999 RMK AO2 LTG DSNT SW T02770214
KHBV 262255Z AUTO 11009KT 10SM VCTS SCT041 SCT070 OVC100 29/21 A2997 RMK AO2 LTG DSNT SW T02860209
KHBV 262235Z AUTO 08010KT 10SM VCTS BKN075 OVC110 29/21 A2998 RMK AO2 LTG DSNT W THRU NE T02860205
KHBV 262215Z AUTO 08011KT 10SM SCT075 BKN110 29/21 A2998 RMK AO2 LTG DSNT S T02870209
KHBV 262155Z AUTO 08014KT 10SM SCT040 SCT045 30/21 A2997 RMK AO2 LTG DSNT S T02950208
KHBV 262135Z AUTO 07014G17KT 10SM SCT040 BKN047 BKN050 32/21 A2996 RMK AO2 LTG DSNT S AND W T03170205
KHBV 262115Z AUTO 12010G15KT 10SM SCT048 SCT055 33/19 A2996 RMK AO2 T03310192
KHBV 262055Z AUTO 14011G18KT 10SM CLR 33/19 A2998 RMK AO2 T03330185
KHBV 262035Z AUTO 11008G16KT 10SM CLR 33/19 A2998 RMK AO2 LTG DSNT NE T03290189
KHBV 262015Z AUTO 10008G15KT 10SM CLR 33/19 A2999 RMK AO2 T03290193
KHBV 261955Z AUTO 12008G14KT 10SM CLR 33/19 A2999 RMK AO2 LTG DSNT NE T03310191
KHBV 261935Z AUTO 09007KT 10SM CLR 33/19 A2999 RMK AO2 T03280189
KHBV 261915Z AUTO 07008KT 10SM SCT050 33/19 A3000 RMK AO2 T03280185
KHBV 261855Z AUTO 08009G14KT 10SM SCT040 32/19 A3001 RMK AO2 T03210187
KHBV 261835Z AUTO 08007KT 10SM SCT040 32/19 A3003 RMK AO2 T03180190
KHBV 261815Z AUTO 09007KT 10SM SCT040 31/19 A3004 RMK AO2 T03130193
KHBV 261755Z AUTO 08004KT 10SM SCT038 31/20 A3005 RMK AO2 T03070196 10401 20190
KHBV 261735Z AUTO 06003KT 10SM SCT038 31/20 A3006 RMK AO2 T03060199
KHBV 261715Z AUTO 06007KT 050V120 10SM SCT033 SCT039 31/20 A3007 RMK AO2 T03060201
KHBV 261655Z AUTO 09006KT 10SM SCT033 30/20 A3008 RMK AO2 T03000202
KHBV 261635Z AUTO 09007KT 10SM SCT029 SCT036 29/20 A3008 RMK AO2 T02900204
KHBV 261615Z AUTO 08005KT 10SM SCT025 SCT033 BKN040 29/21 A3009 RMK AO2 T02860210
KHBV 261555Z AUTO 00000KT 10SM SCT024 SCT033 BKN040 28/21 A3009 RMK AO2 T02800210
KHBV 261535Z AUTO 00000KT 10SM SCT022 SCT047 SCT055 28/21 A3009 RMK AO2 T02790213
KHBV 261515Z AUTO 00000KT 10SM SCT019 SCT027 SCT031 28/22 A3009 RMK AO2 T02760215
KHBV 261455Z AUTO 10004KT 10SM SCT015 BKN020 BKN025 27/22 A3010 RMK AO2 T02680220
KHBV 261435Z AUTO 05003KT 10SM SCT008 SCT014 BKN019 26/23 A3010 RMK AO2 T02610225
KHBV 261415Z AUTO 08005KT 10SM SCT008 BKN016 BKN025 26/23 A3010 RMK AO2 T02560229
KHBV 261355Z AUTO 07003KT 10SM BKN006 BKN011 25/23 A3010 RMK AO2 T02490230
KHBV 261335Z AUTO 07004KT 10SM BKN002 OVC007 24/23 A3010 RMK AO2 T02420230
KHBV 261315Z AUTO 06006KT 10SM OVC002 24/23 A3009 RMK AO2 T02390230
KHBV 261255Z AUTO 06005KT 5SM BR OVC002 24/23 A3008 RMK AO2 T02350228
KHBV 261235Z AUTO 03003KT 2SM BR OVC002 23/23 A3008 RMK AO2 T02320225
KHBV 261215Z AUTO 04004KT 2SM BR BKN002 BKN007 OVC011 23/22 A3008 RMK AO2 T02320224
KHBV 261155Z AUTO 00000KT 4SM BR SCT007 BKN010 OVC021 23/22 A3008 RMK AO2 T02310223 10401 20190
KHBV 261135Z AUTO 04003KT 7SM SCT002 SCT010 BKN019 23/22 A3008 RMK AO2 T02310223
KHBV 261115Z AUTO 00000KT 7SM SCT002 SCT013 BKN019 23/22 A3007 RMK AO2 T02320223
KHBV 261055Z AUTO 03004KT 7SM SCT002 SCT011 23/22 A3007 RMK AO2 T02320223
KHBV 261035Z AUTO 04003KT 7SM SCT004 BKN013 23/22 A3007 RMK AO2 T02320224
KHBV 261015Z AUTO 02003KT 7SM OVC004 23/23 A3007 RMK AO2 T02330225
KHBV 260955Z AUTO 00000KT 10SM OVC004 23/22 A3007 RMK AO2 T02330224
KHBV 260935Z AUTO 00000KT 10SM BKN004 BKN009 23/22 A3007 RMK AO2 T02330224
KHBV 260915Z AUTO 00000KT 10SM SCT006 BKN015 24/23 A3007 RMK AO2 T02350225
KHBV 260855Z AUTO 00000KT 10SM SCT008 SCT011 BKN017 24/23 A3007 RMK AO2 T02350225
KHBV 260835Z AUTO 00000KT 10SM SCT011 BKN017 BKN028 24/23 A3007 RMK AO2 T02360226
KHBV 260815Z AUTO 00000KT 10SM BKN009 BKN015 24/23 A3007 RMK AO2 T02360225
KHBV 260755Z AUTO 00000KT 10SM SCT009 BKN012 24/23 A3006 RMK AO2 T02370225
KHBV 260735Z AUTO 00000KT 10SM SCT009 24/23 A3006 RMK AO2 T02370225
KHBV 260715Z AUTO 00000KT 10SM CLR 24/23 A3007 RMK AO2 T02390225
KHBV 260655Z AUTO 13003KT 10SM CLR 24/23 A3007 RMK AO2 T02400226
KHBV 260635Z AUTO 13003KT 10SM CLR 24/23 A3008 RMK AO2 T02410226
KHBV 260615Z AUTO 13005KT 10SM SCT017 24/23 A3008 RMK AO2 T02430226
KHBV 260555Z AUTO 12004KT 10SM SCT017 25/23 A3008 RMK AO2 T02450226 10401 20190 404010190
KHBV 260535Z AUTO 13006KT 10SM SCT015 SCT020 25/23 A3009 RMK AO2 T02460227
KHBV 260515Z AUTO 12005KT 10SM SCT017 25/23 A3009 RMK AO2 T02470226
KHBV 260455Z AUTO 13004KT 10SM CLR 25/23 A3008 RMK AO2 T02470226
KHBV 260435Z AUTO 14005KT 10SM CLR 25/23 A3008 RMK AO2 T02490225
KHBV 260415Z AUTO 14006KT 10SM CLR 25/23 A3008 RMK AO2 T02520225
KHBV 260355Z AUTO 13006KT 10SM CLR 26/23 A3008 RMK AO2 T02550225
KHBV 260335Z AUTO 00000KT 10SM CLR 26/23 A3008 RMK AO2 T02560225
KHBV 260315Z AUTO 12003KT 10SM CLR 26/22 A3007 RMK AO2 T02570224
KHBV 260255Z AUTO 11007KT 10SM CLR 26/22 A3007 RMK AO2 T02590220
KHBV 260235Z AUTO 00000KT 10SM CLR 26/22 A3006 RMK AO2 T02600215
KHBV 260215Z AUTO 13005KT 10SM CLR 26/21 A3007 RMK AO2 T02630207
KHBV 260155Z AUTO 00000KT 10SM CLR 27/21 A3007 RMK AO2 T02680206
KHBV 260135Z AUTO 10006KT 10SM CLR 27/21 A3008 RMK AO2 T02730205
KHBV 260115Z AUTO 10006KT 10SM CLR 28/20 A3007 RMK AO2 T02760202
KHBV 260055Z AUTO 10009KT 10SM CLR 28/20 A3007 RMK AO2 LTG DSNT NE T02790204
KHBV 260035Z AUTO 11008KT 10SM SCT029 28/20 A3007 RMK AO2 T02840204
KHBV 260015Z AUTO 13010KT 10SM SCT029 29/21 A3006 RMK AO2 LTG DSNT S T02910206
KHBV 252355Z AUTO 09005KT 10SM CLR 29/20 A3005 RMK AO2 LTG DSNT NE T02920202 10401 20190
KHBV 252335Z AUTO 00000KT 10SM CLR 29/20 A3005 RMK AO2 LTG DSNT S T02890201
KHBV 252315Z AUTO 09006KT 10SM CLR 29/19 A3006 RMK AO2 LTG DSNT S T02900194
KHBV 252255Z AUTO 08005KT 10SM CLR 29/19 A3006 RMK AO2 LTG DSNT S T02880194
KHBV 252235Z AUTO 07004KT 10SM CLR 28/20 A3006 RMK AO2 LTG DSNT E T02820197
KHBV 252215Z AUTO 00000KT 10SM CLR 28/19 A3007 RMK AO2 T02790193
KHBV 252155Z AUTO 00000KT 10SM CLR 28/19 A3006 RMK AO2 T02750192
KHBV 252135Z AUTO 01005KT 10SM CLR 27/19 A3007 RMK AO2 T02740194
KHBV 252115Z AUTO 02007KT 10SM CLR 28/20 A3007 RMK AO2 T02760195
KHBV 252055Z AUTO 01007KT 10SM SCT032 28/20 A3008 RMK AO2 T02800197


Page loaded:  08:40 UTC  |   01:40 AM Pacific  |   02:40 AM Mountain  |   03:40 AM Central  |   04:40 AM Eastern

 

ADVISORIES

FORECASTS

FORECASTS

OBSERVATIONS

USER TOOLS

ABOUT US